Time;durP1;ratioP1;P1;durP2;ratioP2;P2;SDS_P1;SDS_P2;PMS_P1;PMS_P2;Temp;Humidity;BMP_temperature;BMP_pressure;BME280_temperature;BME280_humidity;BME280_pressure;Samples;Min_cycle;Max_cycle;Signal;HPM_P1;HPM_P2
2022/10/03 00:01:14;;;;;;;4.50;2.13;;;11.30;97.40;;;;;;5071593;28;20040;-79
2022/10/03 00:03:54;;;;;;;3.10;2.20;;;11.30;97.40;;;;;;5084951;28;20485;-79
2022/10/03 00:06:49;;;;;;;4.43;2.00;;;11.30;97.40;;;;;;5081087;28;20057;-79
2022/10/03 00:09:40;;;;;;;3.70;2.08;;;11.30;97.40;;;;;;5085404;28;20016;-78
2022/10/03 00:12:18;;;;;;;3.72;2.03;;;11.30;97.40;;;;;;5049914;28;20232;-78
2022/10/03 00:14:57;;;;;;;4.57;2.58;;;11.20;97.40;;;;;;5084356;27;20446;-78
2022/10/03 00:17:29;;;;;;;4.82;2.20;;;11.20;97.50;;;;;;5057845;28;20499;-79
2022/10/03 00:20:00;;;;;;;4.87;2.37;;;11.20;97.50;;;;;;5074674;28;20056;-78
2022/10/03 00:22:51;;;;;;;4.30;2.10;;;11.20;97.60;;;;;;5085100;28;20027;-79
2022/10/03 00:25:36;;;;;;;8.02;2.75;;;11.20;97.60;;;;;;5071876;28;20228;-79
2022/10/03 00:28:02;;;;;;;3.28;1.90;;;11.20;97.60;;;;;;5031613;28;20473;-79
2022/10/03 00:30:41;;;;;;;4.53;2.40;;;11.10;97.60;;;;;;5078188;28;20480;-79
2022/10/03 00:33:49;;;;;;;4.35;2.05;;;11.10;97.70;;;;;;5065653;28;20233;-79
2022/10/03 00:36:43;;;;;;;2.78;1.70;;;11.10;97.70;;;;;;5037352;28;20094;-79
2022/10/03 00:39:27;;;;;;;3.00;1.73;;;11.10;97.70;;;;;;5081594;28;20693;-79
2022/10/03 00:42:34;;;;;;;2.65;1.60;;;11.00;97.70;;;;;;5056662;28;20119;-79
2022/10/03 00:45:33;;;;;;;3.25;1.83;;;11.10;97.60;;;;;;5063376;28;20038;-79
2022/10/03 00:48:28;;;;;;;2.35;1.60;;;11.00;97.50;;;;;;5061847;28;20129;-79
2022/10/03 00:51:07;;;;;;;2.60;1.60;;;11.00;97.50;;;;;;5068225;28;20540;-79
2022/10/03 00:53:42;;;;;;;1.93;1.43;;;11.00;97.40;;;;;;5084452;28;20389;-79
2022/10/03 00:56:42;;;;;;;2.75;1.50;;;10.90;97.40;;;;;;5052262;28;20024;-79
2022/10/03 00:59:13;;;;;;;2.97;1.52;;;10.90;97.70;;;;;;5065816;28;20540;-80
2022/10/03 01:01:45;;;;;;;2.30;1.52;;;10.80;97.30;;;;;;5071511;28;20035;-79
2022/10/03 01:04:33;;;;;;;4.63;1.60;;;10.90;97.30;;;;;;5046166;28;20028;-79
2022/10/03 01:07:57;;;;;;;2.50;1.47;;;10.80;97.30;;;;;;5063342;28;20028;-79
2022/10/03 01:10:49;;;;;;;3.08;1.50;;;10.80;97.30;;;;;;4998410;28;20065;-79
2022/10/03 01:13:33;;;;;;;3.40;1.77;;;10.80;97.30;;;;;;4998618;28;20442;-79
2022/10/03 01:16:07;;;;;;;2.55;1.70;;;10.70;97.30;;;;;;5063289;28;20028;-79
2022/10/03 01:18:38;;;;;;;3.17;1.55;;;10.70;97.30;;;;;;5050229;28;20373;-79
2022/10/03 01:21:19;;;;;;;3.47;1.57;;;10.70;97.40;;;;;;5067712;28;20246;-79
2022/10/03 01:24:03;;;;;;;2.10;1.50;;;10.70;97.40;;;;;;5081511;28;20035;-79
2022/10/03 01:26:52;;;;;;;2.72;1.50;;;10.70;97.40;;;;;;5078202;28;20036;-79
2022/10/03 01:32:12;;;;;;;3.05;1.63;;;10.60;97.50;;;;;;5082233;28;20076;-79
2022/10/03 01:35:10;;;;;;;3.23;2.00;;;10.60;97.50;;;;;;5041941;28;20448;-79
2022/10/03 01:37:39;;;;;;;2.92;1.60;;;10.60;97.50;;;;;;5049626;28;20036;-79
2022/10/03 01:40:28;;;;;;;4.45;1.77;;;10.50;97.60;;;;;;5069917;28;20044;-79
2022/10/03 01:43:08;;;;;;;2.60;1.80;;;10.60;97.60;;;;;;5082091;28;20495;-79
2022/10/03 01:45:47;;;;;;;3.25;1.60;;;10.50;97.60;;;;;;5038726;28;20036;-79
2022/10/03 01:48:28;;;;;;;2.93;1.57;;;10.50;97.60;;;;;;5071611;28;20500;-79
2022/10/03 01:51:10;;;;;;;3.90;1.85;;;10.50;97.60;;;;;;5069024;28;20036;-79
2022/10/03 01:54:01;;;;;;;2.42;1.75;;;10.50;97.60;;;;;;5066839;28;20651;-79
2022/10/03 01:56:47;;;;;;;4.93;2.00;;;10.50;97.60;;;;;;5045182;28;20531;-79
2022/10/03 01:59:23;;;;;;;2.80;1.50;;;10.50;97.60;;;;;;5065197;28;20472;-79
2022/10/03 02:01:59;;;;;;;1.90;1.20;;;10.50;97.60;;;;;;5078168;28;20424;-79
2022/10/03 02:04:41;;;;;;;3.35;1.67;;;10.40;97.50;;;;;;5050490;28;20042;-79
2022/10/03 02:07:28;;;;;;;3.38;1.58;;;10.40;97.50;;;;;;5066863;28;20081;-79
2022/10/03 02:10:32;;;;;;;3.88;1.38;;;10.40;97.50;;;;;;5071472;28;20027;-79
2022/10/03 02:13:02;;;;;;;3.05;1.40;;;10.40;97.50;;;;;;5069911;28;20032;-79
2022/10/03 02:16:01;;;;;;;3.17;1.50;;;10.40;97.50;;;;;;5058068;28;20323;-79
2022/10/03 02:18:46;;;;;;;3.25;1.60;;;10.30;97.40;;;;;;5046609;28;20044;-79
2022/10/03 02:21:31;;;;;;;2.45;1.73;;;10.30;97.40;;;;;;5072264;28;20032;-79
2022/10/03 02:24:15;;;;;;;3.28;1.55;;;10.30;97.40;;;;;;5076233;28;20540;-79
2022/10/03 02:27:06;;;;;;;2.90;1.50;;;10.20;97.40;;;;;;5079732;28;20271;-79
2022/10/03 02:30:08;;;;;;;2.53;1.80;;;10.20;97.40;;;;;;5056044;28;20256;-79
2022/10/03 02:33:11;;;;;;;2.63;1.50;;;10.20;97.70;;;;;;5070598;28;20035;-79
2022/10/03 02:36:06;;;;;;;2.72;1.60;;;10.20;97.50;;;;;;5068956;28;22715;-79
2022/10/03 02:38:41;;;;;;;3.20;1.70;;;10.10;97.50;;;;;;5065604;28;20036;-79
2022/10/03 02:41:38;;;;;;;3.42;1.65;;;10.10;97.60;;;;;;5074851;28;20032;-79
2022/10/03 02:44:22;;;;;;;3.67;1.90;;;10.10;97.60;;;;;;5069207;28;20093;-79
2022/10/03 02:47:25;;;;;;;2.70;1.50;;;10.10;97.60;;;;;;5057171;28;20051;-79
2022/10/03 02:50:42;;;;;;;2.40;1.45;;;10.00;97.60;;;;;;5063969;28;20036;-79
2022/10/03 02:53:29;;;;;;;2.33;1.60;;;10.00;97.60;;;;;;5026730;28;20137;-79
2022/10/03 02:56:42;;;;;;;2.47;1.40;;;10.00;97.60;;;;;;5070593;28;20040;-79
2022/10/03 02:59:37;;;;;;;3.17;1.87;;;10.00;97.60;;;;;;5072140;28;20028;-79
2022/10/03 03:02:16;;;;;;;2.53;1.65;;;10.00;97.60;;;;;;5055230;28;20066;-79
2022/10/03 03:05:11;;;;;;;2.72;1.55;;;9.90;97.90;;;;;;5080090;28;20031;-79
2022/10/03 03:07:58;;;;;;;3.10;1.60;;;9.90;97.50;;;;;;5079561;28;20016;-79
2022/10/03 03:10:44;;;;;;;3.15;1.60;;;9.90;97.50;;;;;;5058013;28;20764;-79
2022/10/03 03:13:40;;;;;;;3.23;1.60;;;9.90;97.50;;;;;;5067520;28;20097;-79
2022/10/03 03:16:31;;;;;;;2.95;1.42;;;9.80;97.50;;;;;;5040848;28;20059;-79
2022/10/03 03:19:19;;;;;;;5.15;1.60;;;9.80;97.50;;;;;;5075694;28;20338;-79
2022/10/03 03:22:24;;;;;;;3.63;1.50;;;9.80;97.50;;;;;;5077898;28;20098;-79
2022/10/03 03:24:55;;;;;;;3.25;1.40;;;9.80;97.50;;;;;;5004625;28;20050;-79
2022/10/03 03:27:54;;;;;;;1.93;1.20;;;9.80;97.60;;;;;;5073462;28;20046;-79
2022/10/03 03:30:31;;;;;;;2.67;1.38;;;9.70;97.90;;;;;;5062738;28;20240;-79
2022/10/03 03:33:20;;;;;;;2.67;1.33;;;9.70;97.60;;;;;;5061933;28;20099;-79
2022/10/03 03:36:09;;;;;;;1.70;1.17;;;9.70;97.60;;;;;;5068592;28;20554;-79
2022/10/03 03:38:49;;;;;;;2.85;1.60;;;9.70;97.60;;;;;;5086570;28;20488;-79
2022/10/03 03:41:53;;;;;;;3.40;1.60;;;9.60;97.60;;;;;;5067560;28;20423;-79
2022/10/03 03:44:19;;;;;;;2.47;1.45;;;9.70;97.60;;;;;;5045327;28;20085;-79
2022/10/03 03:47:15;;;;;;;2.65;1.67;;;9.70;97.70;;;;;;5070839;28;20652;-79
2022/10/03 03:50:11;;;;;;;2.60;1.40;;;9.60;97.70;;;;;;5068766;28;20149;-79
2022/10/03 03:52:52;;;;;;;4.03;1.67;;;9.60;97.60;;;;;;5082225;28;20074;-79
2022/10/03 03:55:31;;;;;;;2.15;1.50;;;9.60;97.70;;;;;;5066138;28;20359;-79
2022/10/03 03:58:17;;;;;;;4.03;1.55;;;9.50;97.70;;;;;;5086192;28;20028;-79
2022/10/03 04:01:27;;;;;;;2.55;1.67;;;9.50;97.80;;;;;;5070011;28;20626;-79
2022/10/03 04:04:07;;;;;;;2.90;1.63;;;9.50;97.80;;;;;;5046268;28;20028;-79
2022/10/03 04:06:50;;;;;;;1.95;1.40;;;9.50;97.80;;;;;;5074340;28;20236;-79
2022/10/03 04:09:15;;;;;;;3.00;1.55;;;9.50;97.80;;;;;;5085022;28;20082;-79
2022/10/03 04:12:15;;;;;;;2.40;1.37;;;9.50;97.90;;;;;;5072069;28;20048;-79
2022/10/03 04:15:16;;;;;;;2.92;1.42;;;9.50;98.00;;;;;;5066518;28;20313;-79
2022/10/03 04:21:21;;;;;;;1.73;1.30;;;9.50;97.90;;;;;;5071474;28;20031;-79
2022/10/03 04:24:20;;;;;;;1.87;1.10;;;9.40;97.90;;;;;;5075560;28;20016;-79
2022/10/03 04:26:58;;;;;;;4.03;1.30;;;9.40;97.80;;;;;;5066780;28;20600;-79
2022/10/03 04:29:46;;;;;;;2.03;1.20;;;9.40;97.80;;;;;;5080036;28;20035;-79
2022/10/03 04:32:40;;;;;;;2.00;1.42;;;9.40;97.90;;;;;;5064315;28;20160;-79
2022/10/03 04:35:43;;;;;;;2.35;1.20;;;9.40;97.80;;;;;;5052229;28;20020;-79
2022/10/03 04:38:22;;;;;;;2.00;1.27;;;9.40;97.80;;;;;;5082925;28;20085;-79
2022/10/03 04:41:22;;;;;;;1.75;1.20;;;9.30;97.80;;;;;;5055945;28;20048;-79
2022/10/03 04:44:11;;;;;;;2.30;1.30;;;9.30;97.80;;;;;;5072085;27;20673;-79
2022/10/03 04:46:48;;;;;;;1.95;1.20;;;9.30;97.80;;;;;;5070847;28;20253;-79
2022/10/03 04:49:30;;;;;;;2.58;1.35;;;9.30;97.80;;;;;;5083695;28;20040;-79
2022/10/03 04:52:23;;;;;;;2.27;1.10;;;9.30;97.90;;;;;;5063465;28;20117;-79
2022/10/03 04:55:09;;;;;;;2.85;1.30;;;9.20;97.90;;;;;;5077367;28;20277;-79
2022/10/03 04:57:43;;;;;;;2.65;1.30;;;9.20;97.90;;;;;;5042451;28;20186;-79
2022/10/03 05:00:23;;;;;;;4.03;1.40;;;9.20;97.90;;;;;;5073174;28;20043;-79
2022/10/03 05:03:04;;;;;;;2.80;1.60;;;9.20;97.90;;;;;;5041598;28;20062;-79
2022/10/03 05:05:42;;;;;;;2.33;1.50;;;9.20;97.90;;;;;;5074122;28;20109;-79
2022/10/03 05:08:14;;;;;;;3.50;1.30;;;9.20;97.90;;;;;;5060206;28;20024;-79
2022/10/03 05:10:46;;;;;;;3.45;1.92;;;9.10;97.90;;;;;;5058281;28;20155;-79
2022/10/03 05:13:18;;;;;;;6.90;1.90;;;9.10;97.90;;;;;;5071727;28;20101;-79
2022/10/03 05:15:55;;;;;;;8.43;2.30;;;9.10;97.90;;;;;;5070056;28;20168;-79
2022/10/03 05:19:00;;;;;;;4.73;2.10;;;9.10;97.90;;;;;;5053324;28;20028;-79
2022/10/03 05:21:41;;;;;;;3.78;1.40;;;9.10;97.90;;;;;;5062564;28;20039;-79
2022/10/03 05:24:26;;;;;;;4.40;1.70;;;9.10;98.10;;;;;;5076297;28;20026;-80
2022/10/03 05:27:26;;;;;;;2.67;1.40;;;9.10;97.90;;;;;;5076936;28;20032;-82
2022/10/03 05:30:43;;;;;;;2.72;1.30;;;9.10;97.90;;;;;;5068036;28;20469;-82
2022/10/03 05:33:27;;;;;;;1.90;1.10;;;9.00;97.90;;;;;;5032953;28;20324;-82
2022/10/03 05:36:08;;;;;;;2.70;1.77;;;9.00;97.90;;;;;;5086168;28;20028;-82
2022/10/03 05:39:11;;;;;;;2.38;1.02;;;9.00;97.90;;;;;;5066210;28;20456;-82
2022/10/03 05:41:39;;;;;;;1.63;1.10;;;9.00;97.90;;;;;;5057715;28;20115;-82
2022/10/03 05:44:15;;;;;;;2.53;1.15;;;9.00;98.00;;;;;;5074088;28;20781;-82
2022/10/03 05:47:43;;;;;;;2.30;1.10;;;9.00;98.00;;;;;;5080477;28;20012;-83
2022/10/03 05:50:34;;;;;;;1.88;1.15;;;9.00;98.00;;;;;;5079010;28;20032;-82
2022/10/03 05:53:13;;;;;;;1.88;1.13;;;9.00;98.00;;;;;;5042807;28;20040;-82
2022/10/03 05:56:14;;;;;;;1.70;1.10;;;8.90;98.10;;;;;;5073206;28;20588;-82
2022/10/03 05:59:04;;;;;;;2.28;1.30;;;8.90;98.10;;;;;;5021967;28;20040;-82
2022/10/03 06:01:46;;;;;;;1.63;1.13;;;8.90;98.20;;;;;;5048232;28;20398;-82
2022/10/03 06:04:34;;;;;;;2.55;1.27;;;9.00;98.30;;;;;;5054364;28;20032;-82
2022/10/03 06:07:37;;;;;;;2.50;1.70;;;9.00;98.40;;;;;;5065825;28;20480;-82
2022/10/03 06:10:26;;;;;;;9.52;2.03;;;9.00;98.40;;;;;;5048331;28;20126;-82
2022/10/03 06:13:01;;;;;;;2.50;1.33;;;9.00;98.50;;;;;;5039027;28;20076;-82
2022/10/03 06:15:52;;;;;;;1.70;1.20;;;9.00;98.60;;;;;;5048410;28;20389;-82
2022/10/03 06:18:27;;;;;;;8.40;1.40;;;9.00;98.70;;;;;;5062335;28;20022;-82
2022/10/03 06:21:31;;;;;;;2.05;1.30;;;9.00;98.80;;;;;;5070091;28;20028;-82
2022/10/03 06:24:14;;;;;;;2.03;1.42;;;9.00;98.80;;;;;;5059122;27;20412;-82
2022/10/03 06:27:04;;;;;;;1.95;1.45;;;9.00;99.00;;;;;;5072559;27;20024;-82
2022/10/03 06:29:36;;;;;;;2.00;1.20;;;9.10;99.10;;;;;;5057956;28;20047;-82
2022/10/03 06:32:24;;;;;;;1.75;1.40;;;9.10;99.30;;;;;;5047305;28;20494;-82
2022/10/03 06:35:17;;;;;;;2.55;1.42;;;9.10;99.60;;;;;;5042609;28;20044;-82
2022/10/03 06:38:25;;;;;;;2.50;1.40;;;9.10;99.40;;;;;;5060345;28;20028;-82
2022/10/03 06:41:23;;;;;;;2.45;1.50;;;9.20;99.50;;;;;;5044107;28;20048;-82
2022/10/03 06:43:52;;;;;;;3.13;1.50;;;9.20;99.80;;;;;;5059188;28;20039;-82
2022/10/03 06:46:36;;;;;;;3.85;1.77;;;9.30;99.90;;;;;;5031259;28;20365;-82
2022/10/03 06:49:17;;;;;;;2.53;1.65;;;9.30;99.90;;;;;;5060379;28;21321;-82
2022/10/03 06:51:56;;;;;;;3.45;1.85;;;9.40;99.90;;;;;;5056641;28;20058;-82
2022/10/03 06:54:40;;;;;;;3.55;2.20;;;9.40;99.90;;;;;;5036413;28;20024;-83
2022/10/03 06:57:50;;;;;;;3.13;1.80;;;9.50;99.90;;;;;;5067331;28;20024;-82
2022/10/03 07:00:31;;;;;;;2.67;1.70;;;9.60;99.90;;;;;;5016746;28;20040;-82
2022/10/03 07:03:18;;;;;;;3.28;1.75;;;9.70;99.90;;;;;;5057587;28;20032;-82
2022/10/03 07:06:03;;;;;;;5.10;2.20;;;9.70;99.90;;;;;;5056332;28;20032;-82
2022/10/03 07:09:04;;;;;;;3.95;2.25;;;9.80;99.90;;;;;;5071997;28;20024;-82
2022/10/03 07:11:33;;;;;;;6.17;2.40;;;9.90;99.90;;;;;;5055703;28;20416;-82
2022/10/03 07:14:35;;;;;;;3.78;2.20;;;10.10;99.90;;;;;;5052466;28;20311;-80
2022/10/03 07:17:23;;;;;;;4.53;2.45;;;10.40;99.90;;;;;;5055850;28;20214;-82
2022/10/03 07:19:57;;;;;;;3.88;2.45;;;10.90;99.90;;;;;;5063199;28;20071;-82
2022/10/03 07:22:40;;;;;;;4.05;2.53;;;11.40;99.90;;;;;;5066730;28;20491;-82
2022/10/03 07:25:17;;;;;;;3.93;2.80;;;12.00;99.90;;;;;;5036606;28;20036;-82
2022/10/03 07:27:53;;;;;;;5.82;3.42;;;12.70;99.90;;;;;;5074256;28;20194;-81
2022/10/03 07:30:21;;;;;;;5.50;3.63;;;13.40;99.90;;;;;;5084320;28;20466;-80
2022/10/03 07:33:06;;;;;;;4.97;3.20;;;14.00;99.90;;;;;;5069140;28;20030;-80
2022/10/03 07:38:58;;;;;;;4.93;3.17;;;15.20;99.90;;;;;;5067013;28;20032;-80
2022/10/03 07:41:39;;;;;;;5.35;3.40;;;15.80;99.90;;;;;;5041845;28;20123;-81
2022/10/03 07:44:29;;;;;;;5.88;3.63;;;16.40;99.90;;;;;;5050433;28;20650;-80
2022/10/03 07:47:15;;;;;;;5.75;2.80;;;16.90;99.90;;;;;;5064154;28;20043;-80
2022/10/03 07:50:02;;;;;;;4.65;2.92;;;17.30;99.90;;;;;;5068634;28;20094;-80
2022/10/03 07:53:07;;;;;;;4.73;2.80;;;17.80;99.90;;;;;;5066523;28;20036;-80
2022/10/03 07:55:38;;;;;;;5.03;2.80;;;18.20;99.90;;;;;;5074945;27;20028;-80
2022/10/03 07:58:28;;;;;;;4.60;2.83;;;18.60;99.90;;;;;;5051764;28;20133;-80
2022/10/03 08:01:16;;;;;;;5.78;2.65;;;19.00;99.90;;;;;;5066772;28;20107;-80
2022/10/03 08:03:50;;;;;;;5.90;2.90;;;19.30;99.90;;;;;;5066246;28;20205;-80
2022/10/03 08:06:25;;;;;;;7.00;2.97;;;19.70;99.90;;;;;;5073966;28;20031;-80
2022/10/03 08:09:33;;;;;;;6.13;3.30;;;20.00;99.90;;;;;;5065770;28;20036;-80
2022/10/03 08:12:20;;;;;;;5.97;3.55;;;20.40;99.90;;;;;;5040896;28;20435;-80
2022/10/03 08:14:56;;;;;;;4.43;3.00;;;20.70;99.90;;;;;;5047142;28;20493;-80
2022/10/03 08:17:51;;;;;;;5.25;3.03;;;21.00;99.90;;;;;;5075602;28;20039;-80
2022/10/03 08:20:49;;;;;;;5.17;2.67;;;21.30;99.90;;;;;;5040059;28;20031;-80
2022/10/03 08:23:53;;;;;;;5.05;2.72;;;21.50;99.90;;;;;;5065497;28;20032;-80
2022/10/03 08:26:28;;;;;;;5.03;3.20;;;21.70;99.90;;;;;;5053543;28;20056;-79
2022/10/03 08:29:10;;;;;;;6.22;2.90;;;21.90;99.90;;;;;;5059840;28;20451;-80
2022/10/03 08:32:10;;;;;;;5.47;3.08;;;22.10;98.80;;;;;;5067284;28;20068;-80
2022/10/03 08:35:00;;;;;;;5.87;3.37;;;22.30;98.50;;;;;;5060873;28;20285;-80
2022/10/03 08:37:45;;;;;;;4.40;2.72;;;22.50;99.90;;;;;;5060684;28;20391;-79
2022/10/03 08:40:42;;;;;;;4.85;2.90;;;22.70;98.70;;;;;;5049315;28;20024;-80
2022/10/03 08:43:39;;;;;;;4.78;2.80;;;22.90;98.40;;;;;;5059616;28;20310;-79
2022/10/03 08:46:39;;;;;;;4.95;2.83;;;23.20;97.80;;;;;;5070891;27;20507;-79
2022/10/03 08:49:23;;;;;;;5.47;3.10;;;23.40;99.00;;;;;;5066531;28;20054;-79
2022/10/03 08:51:55;;;;;;;5.78;2.70;;;23.80;99.90;;;;;;5085920;28;20052;-80
2022/10/03 08:54:49;;;;;;;5.15;2.70;;;24.20;99.90;;;;;;5060027;28;20209;-81
2022/10/03 08:57:45;;;;;;;4.38;2.30;;;24.40;99.90;;;;;;5046267;28;20024;-79
2022/10/03 09:00:13;;;;;;;4.63;2.53;;;24.80;99.90;;;;;;5044075;28;20036;-81
2022/10/03 09:02:39;;;;;;;5.00;2.43;;;25.10;99.90;;;;;;5070400;28;20020;-80
2022/10/03 09:05:48;;;;;;;4.32;2.45;;;25.30;99.90;;;;;;5052760;28;20481;-79
2022/10/03 09:08:51;;;;;;;6.00;2.60;;;25.60;96.20;;;;;;5065582;28;20027;-80
2022/10/03 09:11:55;;;;;;;4.70;2.33;;;25.90;98.50;;;;;;5013558;28;20413;-80
2022/10/03 09:14:46;;;;;;;4.47;2.50;;;26.30;95.90;;;;;;5050048;28;20068;-81
2022/10/03 09:17:46;;;;;;;4.88;2.28;;;26.50;97.70;;;;;;5072603;27;20086;-81
2022/10/03 09:20:39;;;;;;;6.10;2.42;;;26.70;95.70;;;;;;5049489;28;20024;-80
2022/10/03 09:23:23;;;;;;;3.70;2.10;;;27.00;96.90;;;;;;5070185;28;20032;-80
2022/10/03 09:26:26;;;;;;;5.27;2.40;;;27.20;97.10;;;;;;5052327;28;20062;-80
2022/10/03 09:29:29;;;;;;;3.75;2.20;;;27.40;95.60;;;;;;5063092;28;20039;-80
2022/10/03 09:32:32;;;;;;;5.88;2.38;;;27.60;95.90;;;;;;5040353;28;20060;-80
2022/10/03 09:35:09;;;;;;;4.60;1.90;;;27.90;96.90;;;;;;5073313;28;20028;-80
2022/10/03 09:37:58;;;;;;;4.10;1.90;;;28.10;96.60;;;;;;5061265;28;20036;-80
2022/10/03 09:41:01;;;;;;;4.43;2.40;;;28.30;96.20;;;;;;5052793;28;20096;-80
2022/10/03 09:43:27;;;;;;;4.72;1.90;;;28.60;95.40;;;;;;5065618;28;20032;-80
2022/10/03 09:46:18;;;;;;;3.80;2.00;;;28.80;99.60;;;;;;5054317;28;20117;-80
2022/10/03 09:49:02;;;;;;;6.28;2.40;;;29.00;93.90;;;;;;5072916;28;20044;-79
2022/10/03 09:51:33;;;;;;;5.20;2.17;;;29.30;99.50;;;;;;5062633;28;20570;-79
2022/10/03 09:54:35;;;;;;;5.90;2.30;;;29.60;99.10;;;;;;5048341;28;20311;-79
2022/10/03 09:57:19;;;;;;;5.50;2.40;;;29.80;93.80;;;;;;5082407;28;20088;-79
2022/10/03 09:59:58;;;;;;;2.73;1.47;;;30.00;93.70;;;;;;5057297;28;20419;-79
2022/10/03 10:02:36;;;;;;;2.88;1.50;;;30.00;92.40;;;;;;5015834;28;20684;-79
2022/10/03 10:05:23;;;;;;;3.67;1.50;;;30.10;92.10;;;;;;5070002;28;20052;-79
2022/10/03 10:08:07;;;;;;;4.78;1.60;;;30.20;93.00;;;;;;5054413;28;20090;-79
2022/10/03 10:10:53;;;;;;;4.50;1.80;;;30.30;91.50;;;;;;5052666;28;20128;-79
2022/10/03 10:13:37;;;;;;;3.03;1.60;;;30.50;92.70;;;;;;5041103;28;20662;-80
2022/10/03 10:16:29;;;;;;;3.95;1.63;;;30.70;91.50;;;;;;5063429;28;20024;-80
2022/10/03 10:19:30;;;;;;;3.97;1.77;;;30.80;91.20;;;;;;5065701;28;20028;-80
2022/10/03 10:22:08;;;;;;;3.90;1.67;;;30.80;89.40;;;;;;5070803;28;20042;-80
2022/10/03 10:24:49;;;;;;;2.80;1.55;;;30.70;91.80;;;;;;5055681;28;20036;-79
2022/10/03 10:27:34;;;;;;;2.60;1.33;;;30.80;95.00;;;;;;5052317;28;20221;-79
2022/10/03 10:30:19;;;;;;;3.47;1.42;;;30.90;97.40;;;;;;5059696;28;20073;-79
2022/10/03 10:33:27;;;;;;;2.80;1.50;;;31.20;92.60;;;;;;5068566;28;20538;-80
2022/10/03 10:36:05;;;;;;;3.97;1.90;;;31.50;92.30;;;;;;5064547;28;20521;-80
2022/10/03 10:38:59;;;;;;;2.65;1.60;;;31.90;97.00;;;;;;5068309;28;20028;-79
2022/10/03 10:41:39;;;;;;;3.57;1.67;;;32.20;94.40;;;;;;5043984;28;20304;-79
2022/10/03 10:44:54;;;;;;;3.33;1.85;;;32.70;92.50;;;;;;5051228;28;20036;-79
2022/10/03 10:47:41;;;;;;;3.13;1.73;;;33.00;92.00;;;;;;5062757;28;20026;-80
2022/10/03 10:50:25;;;;;;;2.60;1.40;;;33.40;92.40;;;;;;5042387;28;20236;-80
2022/10/03 10:53:27;;;;;;;3.63;1.58;;;33.70;92.20;;;;;;5059295;28;20231;-80
2022/10/03 10:56:35;;;;;;;2.73;1.40;;;33.80;90.00;;;;;;5053175;28;20430;-79
2022/10/03 10:59:19;;;;;;;4.28;1.83;;;33.90;91.50;;;;;;4991758;28;20571;-80
2022/10/03 11:02:26;;;;;;;2.95;1.70;;;34.10;95.50;;;;;;5053875;28;20044;-80
2022/10/03 11:05:31;;;;;;;2.33;1.70;;;34.20;89.80;;;;;;5043961;28;20990;-80
2022/10/03 11:08:24;;;;;;;2.53;1.40;;;34.30;89.20;;;;;;5075873;28;20126;-79
2022/10/03 11:10:52;;;;;;;4.23;1.20;;;34.40;88.50;;;;;;5060693;28;20063;-79
2022/10/03 11:13:37;;;;;;;2.72;1.50;;;34.40;93.50;;;;;;5075643;28;20063;-81
2022/10/03 11:16:44;;;;;;;2.38;1.20;;;34.40;88.00;;;;;;5060626;28;20036;-80
2022/10/03 11:19:31;;;;;;;4.47;1.60;;;34.50;89.40;;;;;;5032325;28;20081;-81
2022/10/03 11:22:34;;;;;;;2.33;1.48;;;34.50;86.50;;;;;;5037369;28;20383;-80
2022/10/03 11:25:39;;;;;;;2.27;1.27;;;34.50;81.90;;;;;;5066892;28;20035;-79
2022/10/03 11:28:27;;;;;;;2.13;1.30;;;34.40;82.40;;;;;;5044681;28;20072;-79
2022/10/03 11:31:20;;;;;;;2.20;1.60;;;34.50;83.60;;;;;;5073547;27;20696;-80
2022/10/03 11:34:19;;;;;;;3.72;1.48;;;34.60;81.50;;;;;;5067814;28;20035;-80
2022/10/03 11:37:08;;;;;;;3.67;1.80;;;34.60;81.00;;;;;;5050761;28;20037;-80
2022/10/03 11:39:56;;;;;;;2.17;1.30;;;34.70;81.00;;;;;;5069187;28;20110;-81
2022/10/03 11:42:21;;;;;;;3.65;1.63;;;34.70;85.20;;;;;;5069060;28;20040;-79
2022/10/03 11:45:19;;;;;;;2.60;1.30;;;34.70;90.40;;;;;;5053070;28;20473;-79
2022/10/03 11:48:13;;;;;;;2.23;1.10;;;34.70;77.80;;;;;;5051659;28;20056;-80
2022/10/03 11:50:51;;;;;;;2.50;1.17;;;34.30;79.20;;;;;;5063836;28;20595;-81
2022/10/03 11:53:37;;;;;;;2.33;1.33;;;34.20;78.40;;;;;;5030752;28;20392;-80
2022/10/03 11:56:32;;;;;;;2.92;1.25;;;34.00;80.50;;;;;;5048207;28;21084;-81
2022/10/03 11:59:31;;;;;;;3.30;1.50;;;33.90;75.90;;;;;;5064641;28;20020;-81
2022/10/03 12:02:00;;;;;;;3.13;1.20;;;33.80;76.30;;;;;;5057277;28;20482;-80
2022/10/03 12:04:48;;;;;;;3.97;1.50;;;33.80;82.40;;;;;;5074346;28;20563;-80
2022/10/03 12:10:32;;;;;;;2.22;1.25;;;33.80;83.00;;;;;;5077997;28;20027;-80
2022/10/03 12:13:03;;;;;;;2.28;1.38;;;33.80;81.20;;;;;;5058401;28;20387;-80
2022/10/03 12:15:34;;;;;;;1.47;1.00;;;33.70;83.10;;;;;;5058736;28;20016;-79
2022/10/03 12:18:44;;;;;;;2.28;1.02;;;33.40;81.90;;;;;;5055212;28;20520;-79
2022/10/03 12:21:18;;;;;;;1.90;1.10;;;32.90;71.20;;;;;;5012075;28;20067;-79
2022/10/03 12:24:17;;;;;;;2.33;1.10;;;32.40;80.40;;;;;;5050282;28;20036;-80
2022/10/03 12:27:00;;;;;;;3.08;1.20;;;31.90;75.20;;;;;;5054452;28;20039;-79
2022/10/03 12:29:31;;;;;;;3.00;1.20;;;31.40;75.30;;;;;;5067303;28;20028;-80
2022/10/03 12:32:18;;;;;;;3.38;1.00;;;31.10;80.30;;;;;;5057406;28;20029;-79
2022/10/03 12:35:13;;;;;;;2.17;1.00;;;30.70;76.10;;;;;;5054214;28;20021;-79
2022/10/03 12:38:02;;;;;;;5.30;1.38;;;30.30;75.10;;;;;;5051826;28;20116;-79
2022/10/03 12:41:03;;;;;;;2.58;1.10;;;29.90;77.30;;;;;;5060160;28;20436;-79
2022/10/03 12:43:50;;;;;;;2.47;0.90;;;29.40;73.90;;;;;;5036507;28;20405;-79
2022/10/03 12:46:29;;;;;;;2.72;1.00;;;29.10;79.00;;;;;;5054568;28;20024;-79
2022/10/03 12:48:58;;;;;;;2.33;1.10;;;28.90;79.00;;;;;;5058185;28;20418;-79
2022/10/03 12:51:55;;;;;;;3.33;0.90;;;28.70;82.90;;;;;;5049659;28;20028;-79
2022/10/03 12:55:03;;;;;;;3.30;1.25;;;28.50;76.50;;;;;;5056763;28;20717;-79
2022/10/03 12:58:07;;;;;;;2.93;1.00;;;28.30;76.30;;;;;;5058724;28;20040;-79
2022/10/03 13:01:01;;;;;;;2.78;1.00;;;28.20;84.60;;;;;;4935704;28;20586;-79
2022/10/03 13:04:08;;;;;;;4.95;1.42;;;27.90;77.80;;;;;;4950847;28;20378;-79
2022/10/03 13:06:52;;;;;;;3.35;1.10;;;27.80;80.70;;;;;;5039208;28;20121;-79
2022/10/03 13:09:24;;;;;;;3.30;1.13;;;27.70;89.00;;;;;;5054727;28;20039;-79
2022/10/03 13:12:00;;;;;;;2.43;0.90;;;27.80;85.70;;;;;;5062646;28;20028;-79
2022/10/03 13:14:35;;;;;;;2.88;1.00;;;27.90;87.10;;;;;;5066718;28;20232;-79
2022/10/03 13:17:28;;;;;;;2.17;1.10;;;28.10;86.90;;;;;;5046951;28;20245;-79
2022/10/03 13:20:09;;;;;;;1.75;1.08;;;28.40;84.50;;;;;;5059583;28;20332;-79
2022/10/03 13:22:51;;;;;;;3.65;1.23;;;28.50;88.50;;;;;;5068130;28;20032;-79
2022/10/03 13:25:44;;;;;;;3.43;1.10;;;28.60;82.30;;;;;;5044505;28;20070;-79
2022/10/03 13:28:31;;;;;;;2.90;1.05;;;28.70;79.40;;;;;;5077201;28;20039;-80
2022/10/03 13:31:22;;;;;;;5.03;1.20;;;28.60;78.50;;;;;;5068175;28;20137;-79
2022/10/03 13:33:56;;;;;;;3.60;1.30;;;28.50;78.40;;;;;;5067631;27;20016;-78
2022/10/03 13:36:31;;;;;;;3.47;1.10;;;28.30;78.60;;;;;;5065157;28;20366;-79
2022/10/03 13:39:22;;;;;;;2.07;1.00;;;28.10;79.50;;;;;;5061950;28;20028;-78
2022/10/03 13:41:59;;;;;;;2.33;0.80;;;27.90;74.90;;;;;;5051493;28;20063;-79
2022/10/03 13:44:30;;;;;;;2.30;0.98;;;27.60;77.60;;;;;;5072934;28;20024;-79
2022/10/03 13:47:18;;;;;;;2.65;0.90;;;27.40;78.30;;;;;;5044528;28;20046;-78
2022/10/03 13:49:51;;;;;;;4.65;1.00;;;27.20;76.10;;;;;;5080124;27;20048;-78
2022/10/03 13:52:36;;;;;;;2.30;0.90;;;27.00;80.10;;;;;;5075883;28;20237;-78
2022/10/03 13:55:26;;;;;;;2.28;0.90;;;26.90;75.90;;;;;;5075283;28;20081;-78
2022/10/03 13:58:16;;;;;;;2.00;0.82;;;26.70;79.10;;;;;;5057215;28;20036;-78
2022/10/03 14:00:48;;;;;;;1.52;0.73;;;26.50;77.30;;;;;;5072368;28;20020;-78
2022/10/03 14:03:26;;;;;;;1.65;0.90;;;26.40;81.50;;;;;;5063581;28;20032;-78
2022/10/03 14:05:55;;;;;;;2.40;0.70;;;26.20;79.60;;;;;;5055708;28;20095;-78
2022/10/03 14:08:53;;;;;;;2.08;0.80;;;26.20;83.50;;;;;;5062149;28;20031;-78
2022/10/03 14:11:52;;;;;;;2.85;0.90;;;26.10;78.30;;;;;;5052996;28;20044;-78
2022/10/03 14:15:05;;;;;;;1.80;0.70;;;26.00;78.60;;;;;;5052831;28;20281;-78
2022/10/03 14:17:45;;;;;;;2.42;0.95;;;25.90;77.70;;;;;;5067402;28;20038;-78
2022/10/03 14:20:36;;;;;;;1.93;0.77;;;25.80;80.50;;;;;;5056019;28;20063;-78
2022/10/03 14:23:50;;;;;;;1.92;0.80;;;25.70;78.10;;;;;;5061145;28;20132;-78
2022/10/03 14:26:23;;;;;;;2.25;0.90;;;25.70;78.30;;;;;;4996961;28;20528;-78
2022/10/03 14:29:05;;;;;;;3.15;0.98;;;25.70;83.90;;;;;;4979579;28;20025;-78
2022/10/03 14:31:50;;;;;;;2.05;0.90;;;25.60;81.80;;;;;;5051278;28;20281;-78
2022/10/03 14:34:49;;;;;;;2.60;0.90;;;25.60;79.40;;;;;;5033730;28;20501;-78
2022/10/03 14:37:41;;;;;;;2.50;1.00;;;25.50;78.70;;;;;;5064692;28;20261;-78
2022/10/03 14:40:30;;;;;;;1.80;1.00;;;25.50;78.00;;;;;;5041467;28;20013;-78
2022/10/03 14:43:20;;;;;;;3.20;0.90;;;25.40;78.20;;;;;;5071284;28;20036;-78
2022/10/03 14:45:50;;;;;;;2.03;0.80;;;25.40;80.60;;;;;;5072203;28;20028;-79
2022/10/03 14:48:43;;;;;;;2.67;0.80;;;25.30;81.00;;;;;;5047787;28;20047;-78